Time;durP1;ratioP1;P1;durP2;ratioP2;P2;SDS_P1;SDS_P2;PMS_P1;PMS_P2;Temp;Humidity;BMP_temperature;BMP_pressure;BME280_temperature;BME280_humidity;BME280_pressure;Samples;Min_cycle;Max_cycle;Signal;HPM_P1;HPM_P2
2021/08/18 00:10:52;;;;;;;45.97;21.38;;;12.80;99.90;;;;;;5095724;28;20037;-92
2021/08/18 00:31:05;;;;;;;44.35;21.45;;;12.80;99.90;;;;;;4963964;28;20031;-94
2021/08/18 00:46:22;;;;;;;44.42;21.58;;;12.80;99.90;;;;;;4917904;29;20036;-92
2021/08/18 00:49:53;;;;;;;45.55;21.80;;;12.80;99.90;;;;;;4931165;29;20068;-93
2021/08/18 00:53:09;;;;;;;44.55;21.95;;;12.80;99.90;;;;;;4928795;29;20395;-92
2021/08/18 01:04:32;;;;;;;43.65;22.10;;;12.80;99.90;;;;;;5100565;28;20054;-91
2021/08/18 01:08:26;;;;;;;45.95;21.42;;;12.80;99.90;;;;;;5073945;28;20071;-91
2021/08/18 01:11:54;;;;;;;46.65;23.23;;;12.80;99.90;;;;;;5052368;28;20053;-93
2021/08/18 01:15:52;;;;;;;52.17;23.00;;;12.80;99.90;;;;;;5036940;28;20123;-93
2021/08/18 01:18:42;;;;;;;47.45;22.58;;;12.80;99.90;;;;;;5031156;28;20055;-90
2021/08/18 01:21:33;;;;;;;45.65;23.83;;;12.80;99.90;;;;;;5042818;28;20063;-91
2021/08/18 01:24:22;;;;;;;43.05;21.35;;;12.70;99.90;;;;;;5033576;28;20051;-91
2021/08/18 01:27:10;;;;;;;48.10;21.95;;;12.70;99.90;;;;;;5079497;28;20052;-92
2021/08/18 01:30:00;;;;;;;47.13;21.92;;;12.80;99.90;;;;;;5092876;28;20101;-88
2021/08/18 01:32:59;;;;;;;48.53;23.23;;;12.80;99.90;;;;;;5082332;28;20051;-90
2021/08/18 01:35:51;;;;;;;45.45;24.05;;;12.80;99.90;;;;;;5108292;27;20041;-92
2021/08/18 01:38:39;;;;;;;40.03;20.77;;;12.70;99.90;;;;;;5106295;28;20134;-90
2021/08/18 01:41:27;;;;;;;42.95;22.48;;;12.70;99.90;;;;;;5093244;28;20051;-91
2021/08/18 01:44:14;;;;;;;42.05;21.58;;;12.70;99.90;;;;;;5081659;28;20071;-90
2021/08/18 01:47:11;;;;;;;38.60;20.63;;;12.70;99.90;;;;;;5100602;28;20052;-92
2021/08/18 01:49:59;;;;;;;43.20;21.58;;;12.70;99.90;;;;;;5086097;28;20052;-91
2021/08/18 01:52:59;;;;;;;40.55;21.48;;;12.80;99.90;;;;;;5108097;28;20032;-91
2021/08/18 01:55:48;;;;;;;41.70;23.05;;;12.80;99.90;;;;;;5096663;28;20093;-92
2021/08/18 01:58:39;;;;;;;44.17;22.48;;;12.70;99.90;;;;;;5108906;28;20135;-88
2021/08/18 02:01:26;;;;;;;45.42;21.60;;;12.80;99.90;;;;;;5075280;28;20044;-90
2021/08/18 02:04:14;;;;;;;44.38;22.15;;;12.80;99.90;;;;;;5087274;28;20041;-90
2021/08/18 02:07:04;;;;;;;38.78;22.67;;;12.70;99.90;;;;;;5103094;28;20408;-90
2021/08/18 02:09:52;;;;;;;44.80;22.38;;;12.70;99.90;;;;;;5073413;28;20039;-89
2021/08/18 02:12:40;;;;;;;42.92;21.40;;;12.70;99.90;;;;;;5108356;28;20047;-90
2021/08/18 02:15:30;;;;;;;48.55;22.38;;;12.70;99.90;;;;;;5067251;28;20051;-91
2021/08/18 02:18:21;;;;;;;41.92;21.55;;;12.70;99.90;;;;;;5074625;28;20534;-92
2021/08/18 02:21:09;;;;;;;52.65;23.48;;;12.60;99.90;;;;;;5087262;28;20052;-92
2021/08/18 02:23:57;;;;;;;43.15;21.23;;;12.60;99.90;;;;;;5102428;28;20040;-91
2021/08/18 02:26:44;;;;;;;43.25;21.98;;;12.60;99.90;;;;;;5078435;28;20155;-93
2021/08/18 02:29:33;;;;;;;45.75;22.15;;;12.60;99.90;;;;;;5104031;28;20047;-91
2021/08/18 02:32:21;;;;;;;43.10;22.02;;;12.60;99.90;;;;;;5095174;28;20040;-91
2021/08/18 02:35:09;;;;;;;43.53;20.77;;;12.60;99.90;;;;;;5083540;28;20060;-91
2021/08/18 02:37:58;;;;;;;40.78;20.83;;;12.60;99.90;;;;;;5077360;28;20036;-92
2021/08/18 02:40:46;;;;;;;40.70;19.83;;;12.50;99.90;;;;;;5087211;28;20036;-93
2021/08/18 02:43:33;;;;;;;40.92;19.48;;;12.60;99.90;;;;;;5095319;28;20051;-92
2021/08/18 02:46:22;;;;;;;30.73;18.23;;;12.60;99.90;;;;;;5082988;28;20067;-92
2021/08/18 02:49:10;;;;;;;35.47;18.50;;;12.60;99.90;;;;;;5095956;28;20044;-92
2021/08/18 02:51:58;;;;;;;35.15;18.15;;;12.60;99.90;;;;;;5061618;28;20123;-92
2021/08/18 02:54:46;;;;;;;33.42;17.20;;;12.60;99.90;;;;;;5077930;28;20040;-90
2021/08/18 02:57:37;;;;;;;36.17;18.08;;;12.60;99.90;;;;;;5094110;28;20051;-91
2021/08/18 03:00:28;;;;;;;34.80;17.40;;;12.60;99.90;;;;;;5058215;28;20044;-93
2021/08/18 03:03:19;;;;;;;33.65;18.02;;;12.60;99.90;;;;;;5050985;28;20109;-91
2021/08/18 03:06:07;;;;;;;30.15;17.45;;;12.60;99.90;;;;;;5072349;28;20411;-89
2021/08/18 03:08:57;;;;;;;32.10;17.67;;;12.60;99.90;;;;;;5069252;28;20109;-90
2021/08/18 03:11:44;;;;;;;31.13;16.75;;;12.60;99.90;;;;;;5081699;28;20040;-92
2021/08/18 03:14:35;;;;;;;33.15;16.40;;;12.60;99.90;;;;;;5061115;28;20040;-93
2021/08/18 03:17:25;;;;;;;35.03;19.05;;;12.60;99.90;;;;;;5055406;28;20047;-93
2021/08/18 03:20:17;;;;;;;28.80;16.27;;;12.60;99.90;;;;;;5086501;28;20051;-91
2021/08/18 03:23:05;;;;;;;38.22;18.58;;;12.60;99.90;;;;;;5091989;28;20040;-92
2021/08/18 03:25:52;;;;;;;35.55;17.83;;;12.60;99.90;;;;;;5072360;28;20040;-91
2021/08/18 03:28:39;;;;;;;32.10;16.75;;;12.60;99.90;;;;;;5081338;28;20385;-91
2021/08/18 03:31:29;;;;;;;34.38;18.30;;;12.50;99.90;;;;;;5106840;27;20036;-92
2021/08/18 03:34:17;;;;;;;34.05;17.52;;;12.50;99.90;;;;;;5089331;28;20145;-90
2021/08/18 03:37:04;;;;;;;32.70;17.50;;;12.50;99.90;;;;;;5089922;28;20532;-90
2021/08/18 03:39:52;;;;;;;29.67;16.60;;;12.50;99.90;;;;;;5091636;28;20040;-91
2021/08/18 03:42:41;;;;;;;33.25;17.30;;;12.50;99.90;;;;;;5117287;27;20375;-91
2021/08/18 03:45:29;;;;;;;33.72;16.88;;;12.50;99.90;;;;;;5091414;28;20067;-91
2021/08/18 03:48:18;;;;;;;30.35;16.88;;;12.50;99.90;;;;;;5091322;28;20560;-90
2021/08/18 03:51:09;;;;;;;34.53;17.25;;;12.50;99.90;;;;;;5085818;28;20048;-89
2021/08/18 03:54:00;;;;;;;29.00;15.57;;;12.50;99.90;;;;;;5077425;28;20040;-92
2021/08/18 03:56:48;;;;;;;28.13;15.60;;;12.50;99.90;;;;;;5103930;28;20063;-88
2021/08/18 03:59:36;;;;;;;30.13;16.88;;;12.50;99.90;;;;;;5060418;28;20389;-88
2021/08/18 04:02:23;;;;;;;27.30;15.68;;;12.50;99.90;;;;;;5090301;28;20059;-90
2021/08/18 04:05:13;;;;;;;32.42;16.67;;;12.50;99.90;;;;;;5094353;28;20402;-90
2021/08/18 04:08:07;;;;;;;30.40;16.58;;;12.60;99.90;;;;;;5090058;28;20063;-90
2021/08/18 04:10:56;;;;;;;36.97;16.38;;;12.50;99.90;;;;;;5082735;28;20040;-91
2021/08/18 04:13:45;;;;;;;32.75;17.05;;;12.60;99.90;;;;;;5070456;28;20127;-90
2021/08/18 04:16:33;;;;;;;32.08;16.30;;;12.50;99.90;;;;;;5057419;28;20397;-91
2021/08/18 04:19:20;;;;;;;26.92;15.65;;;12.50;99.90;;;;;;5061979;28;20040;-90
2021/08/18 04:22:08;;;;;;;30.55;16.08;;;12.50;99.90;;;;;;5091569;28;20080;-89
2021/08/18 04:24:58;;;;;;;33.10;16.92;;;12.50;99.90;;;;;;5071823;28;20068;-89
2021/08/18 04:27:46;;;;;;;26.58;15.60;;;12.50;99.90;;;;;;5044384;28;20059;-88
2021/08/18 04:34:53;;;;;;;27.30;14.95;;;12.60;99.90;;;;;;5066462;28;20040;-89
2021/08/18 04:38:03;;;;;;;28.02;15.50;;;12.60;99.90;;;;;;5033994;28;20470;-88
2021/08/18 04:49:18;;;;;;;29.42;15.52;;;12.60;99.90;;;;;;5033040;28;20539;-91
2021/08/18 04:52:06;;;;;;;32.13;17.05;;;12.60;99.90;;;;;;5076115;28;20078;-90
2021/08/18 04:54:55;;;;;;;31.30;16.70;;;12.70;99.90;;;;;;5095476;28;20032;-91
2021/08/18 04:57:46;;;;;;;32.85;17.30;;;12.70;99.90;;;;;;5101034;28;20160;-89
2021/08/18 05:00:36;;;;;;;30.30;17.42;;;12.70;99.90;;;;;;5103372;27;20039;-88
2021/08/18 05:03:24;;;;;;;29.83;16.48;;;12.70;99.90;;;;;;5107902;28;20055;-89
2021/08/18 05:06:14;;;;;;;30.15;16.30;;;12.70;99.90;;;;;;5098403;28;20044;-88
2021/08/18 05:09:07;;;;;;;31.02;16.25;;;12.80;99.90;;;;;;5099469;27;20165;-90
2021/08/18 05:11:56;;;;;;;31.35;16.80;;;12.80;99.90;;;;;;5098645;28;20039;-89
2021/08/18 05:14:43;;;;;;;33.17;17.20;;;12.80;99.90;;;;;;5072920;28;20040;-91
2021/08/18 05:17:30;;;;;;;29.52;15.80;;;12.80;99.90;;;;;;5081827;28;20055;-89
2021/08/18 05:20:22;;;;;;;26.75;16.58;;;12.90;99.90;;;;;;5102566;28;20457;-89
2021/08/18 05:23:11;;;;;;;32.83;16.75;;;12.90;99.90;;;;;;5113178;27;20408;-88
2021/08/18 05:25:59;;;;;;;30.80;16.35;;;12.90;99.90;;;;;;5111943;28;20161;-91
2021/08/18 05:29:16;;;;;;;;;;;;;;;;;;;;;
2021/08/18 05:32:25;;;;;;;27.83;16.08;;;13.00;99.90;;;;;;5121128;27;20043;-91
2021/08/18 05:35:29;;;;;;;26.30;15.55;;;13.00;99.90;;;;;;5091091;28;20095;-92
2021/08/18 05:38:33;;;;;;;29.45;15.45;;;13.10;99.90;;;;;;5112117;28;20054;-95
2021/08/18 05:41:21;;;;;;;26.48;15.80;;;13.10;99.90;;;;;;5091650;28;20429;-88
2021/08/18 05:44:38;;;;;;;29.80;14.80;;;13.10;99.90;;;;;;5101252;28;20046;-92
2021/08/18 05:47:30;;;;;;;30.33;14.82;;;13.20;99.90;;;;;;5105965;28;20121;-92
2021/08/18 05:50:28;;;;;;;24.60;13.25;;;13.30;99.90;;;;;;5109657;28;20074;-94
2021/08/18 05:58:08;;;;;;;22.35;13.35;;;13.50;99.90;;;;;;5114663;27;20036;-93
2021/08/18 06:01:36;;;;;;;23.58;12.70;;;13.50;99.90;;;;;;5092512;27;20096;-93
2021/08/18 06:04:24;;;;;;;21.55;12.77;;;13.50;99.90;;;;;;5052092;28;20068;-92
2021/08/18 06:07:25;;;;;;;24.65;12.68;;;13.60;99.90;;;;;;5098963;28;20036;-92
2021/08/18 06:14:37;;;;;;;21.80;12.73;;;13.70;99.90;;;;;;5084182;28;20471;-94
2021/08/18 06:17:36;;;;;;;24.17;13.43;;;13.80;99.90;;;;;;5095482;28;20201;-92
2021/08/18 06:20:36;;;;;;;23.48;13.73;;;13.70;99.90;;;;;;5100246;28;20368;-93
2021/08/18 06:23:31;;;;;;;22.63;13.18;;;13.80;99.90;;;;;;5104101;28;20142;-93
2021/08/18 06:26:49;;;;;;;22.73;11.50;;;13.80;99.90;;;;;;5103735;27;20047;-92
2021/08/18 06:30:00;;;;;;;20.85;11.98;;;14.00;99.90;;;;;;5062276;28;20472;-92
2021/08/18 06:33:05;;;;;;;23.42;12.80;;;14.00;99.90;;;;;;5070201;28;20032;-94
2021/08/18 06:36:27;;;;;;;;;;;;;;;;;;;;;
2021/08/18 06:43:31;;;;;;;20.80;12.23;;;14.20;99.90;;;;;;5066827;28;20068;-93
2021/08/18 06:47:02;;;;;;;19.67;11.43;;;14.30;99.90;;;;;;5071661;28;20037;-94
2021/08/18 06:50:19;;;;;;;19.58;11.45;;;14.50;99.90;;;;;;5050605;28;20060;-93
2021/08/18 06:53:24;;;;;;;19.17;10.70;;;14.80;99.90;;;;;;5075185;28;20040;-92
2021/08/18 06:57:17;;;;;;;;;;;;;;;;;;;;;
2021/08/18 07:00:24;;;;;;;18.92;10.65;;;15.30;99.90;;;;;;4999553;28;20044;-91
2021/08/18 07:03:12;;;;;;;18.23;10.80;;;15.40;99.90;;;;;;4980830;28;20054;-91
2021/08/18 07:06:00;;;;;;;15.70;10.35;;;15.30;99.90;;;;;;5006242;28;20064;-92
2021/08/18 07:08:47;;;;;;;14.48;9.15;;;15.60;99.90;;;;;;5038596;28;20188;-93
2021/08/18 07:11:38;;;;;;;17.52;10.20;;;15.40;99.90;;;;;;5039191;28;20054;-94
2021/08/18 07:14:29;;;;;;;13.75;8.13;;;15.40;99.90;;;;;;5110923;27;20047;-92
2021/08/18 07:17:16;;;;;;;14.93;8.85;;;15.30;99.90;;;;;;5123092;28;20078;-93
2021/08/18 07:20:06;;;;;;;15.73;8.82;;;15.30;99.90;;;;;;5128425;28;20050;-93
2021/08/18 07:23:27;;;;;;;15.75;9.93;;;15.40;99.90;;;;;;5103299;28;20051;-94
2021/08/18 07:26:32;;;;;;;;;;;;;;;;;;;;;
2021/08/18 07:30:28;;;;;;;;;;;;;;;;;;;;;
2021/08/18 07:33:26;;;;;;;11.77;7.85;;;16.50;99.90;;;;;;5092786;28;20059;-92
2021/08/18 07:37:04;;;;;;;9.73;6.47;;;17.00;99.90;;;;;;5120841;27;20086;-91
2021/08/18 07:43:49;;;;;;;11.80;5.72;;;16.60;99.90;;;;;;5111644;28;19930;-93
2021/08/18 07:46:40;;;;;;;9.60;5.93;;;16.50;99.90;;;;;;5115160;28;20043;-93
2021/08/18 07:49:32;;;;;;;8.85;5.25;;;16.50;99.90;;;;;;5094274;28;20478;-91
2021/08/18 07:52:29;;;;;;;9.70;5.30;;;16.50;99.90;;;;;;5119536;28;20072;-91
2021/08/18 07:59:31;;;;;;;11.05;5.07;;;15.80;99.90;;;;;;5077493;28;20080;-93
2021/08/18 08:02:36;;;;;;;7.85;4.13;;;15.80;99.90;;;;;;5043711;28;20048;-93
2021/08/18 08:05:26;;;;;;;6.35;3.70;;;16.20;99.90;;;;;;5044255;28;20400;-91
2021/08/18 08:08:21;;;;;;;5.22;3.10;;;16.30;99.90;;;;;;5054084;28;20504;-91
2021/08/18 08:11:24;;;;;;;5.15;3.40;;;16.30;99.90;;;;;;5070788;28;20057;-91
2021/08/18 08:14:46;;;;;;;5.25;3.05;;;16.30;99.90;;;;;;5063023;28;20151;-90
2021/08/18 08:17:57;;;;;;;4.97;2.55;;;16.40;99.90;;;;;;5052837;28;20046;-93
2021/08/18 08:20:58;;;;;;;;;;;;;;;;;;;;;
2021/08/18 08:23:58;;;;;;;2.50;1.98;;;16.40;99.90;;;;;;5022477;28;20055;-91
2021/08/18 08:26:47;;;;;;;2.10;1.90;;;16.60;99.90;;;;;;5006781;28;20120;-93
2021/08/18 08:29:35;;;;;;;3.67;1.58;;;16.50;99.90;;;;;;5018804;28;20414;-91
2021/08/18 08:32:25;;;;;;;3.78;1.42;;;16.50;99.90;;;;;;5046156;28;20119;-90
2021/08/18 08:35:12;;;;;;;2.05;1.63;;;16.80;99.90;;;;;;5078860;28;20062;-90
2021/08/18 08:38:02;;;;;;;1.63;1.27;;;16.80;99.90;;;;;;5120935;27;20139;-91
2021/08/18 08:40:50;;;;;;;1.70;1.40;;;16.70;99.90;;;;;;5112726;28;20044;-89
2021/08/18 08:43:41;;;;;;;1.75;1.60;;;16.70;99.90;;;;;;5109148;27;20072;-90
2021/08/18 08:46:33;;;;;;;2.88;1.10;;;16.60;99.90;;;;;;5114266;28;20047;-91
2021/08/18 08:49:21;;;;;;;3.13;1.42;;;16.50;99.90;;;;;;5103911;28;20426;-89
2021/08/18 08:52:13;;;;;;;1.38;1.10;;;16.60;99.90;;;;;;5095262;28;20060;-91
2021/08/18 08:55:01;;;;;;;2.00;1.45;;;16.70;99.90;;;;;;5106267;28;20039;-90
2021/08/18 08:57:54;;;;;;;3.38;1.90;;;16.80;99.90;;;;;;5106892;28;20100;-90
2021/08/18 09:00:41;;;;;;;3.90;1.98;;;16.80;99.90;;;;;;5105467;28;20047;-90
2021/08/18 09:03:29;;;;;;;2.38;2.08;;;17.00;99.90;;;;;;5135591;27;20093;-89
2021/08/18 09:06:21;;;;;;;1.92;1.58;;;16.90;99.90;;;;;;5101465;28;20095;-92
2021/08/18 09:09:08;;;;;;;1.20;1.00;;;16.90;99.90;;;;;;5105919;28;20062;-90
2021/08/18 09:12:10;;;;;;;0.95;0.80;;;17.00;99.90;;;;;;5126846;27;20124;-90
2021/08/18 09:15:17;;;;;;;1.52;0.85;;;17.00;99.90;;;;;;5099848;28;20378;-90
2021/08/18 09:18:04;;;;;;;0.88;0.70;;;17.00;99.90;;;;;;5115951;28;20092;-89
2021/08/18 09:20:59;;;;;;;2.55;0.50;;;17.10;99.90;;;;;;5110297;27;20042;-91
2021/08/18 09:23:46;;;;;;;3.97;0.82;;;17.30;99.90;;;;;;5108098;28;20483;-93
2021/08/18 09:26:37;;;;;;;0.70;0.60;;;17.40;99.90;;;;;;5111755;27;20068;-90
2021/08/18 09:29:44;;;;;;;1.30;0.65;;;17.50;99.90;;;;;;5095644;28;20044;-91
2021/08/18 09:32:36;;;;;;;1.98;0.60;;;17.80;99.90;;;;;;5100757;28;20111;-91
2021/08/18 09:35:29;;;;;;;0.70;0.70;;;18.00;99.90;;;;;;5106162;28;20067;-90
2021/08/18 09:38:17;;;;;;;2.30;0.68;;;17.90;99.90;;;;;;5107846;27;20048;-93
2021/08/18 09:41:23;;;;;;;;;;;;;;;;;;;;;
2021/08/18 09:44:16;;;;;;;0.70;0.60;;;18.40;99.90;;;;;;5113633;28;20054;-94
2021/08/18 09:47:09;;;;;;;1.33;0.73;;;18.60;99.90;;;;;;5106838;28;20071;-94
2021/08/18 09:50:00;;;;;;;0.60;0.60;;;18.60;99.90;;;;;;5101518;27;20543;-94
2021/08/18 09:52:53;;;;;;;0.82;0.60;;;18.80;99.90;;;;;;5100789;28;20052;-91
2021/08/18 09:56:00;;;;;;;0.70;0.60;;;18.90;99.90;;;;;;5101816;27;20076;-91
2021/08/18 09:59:00;;;;;;;0.63;0.50;;;19.20;99.90;;;;;;5100759;28;20484;-94
2021/08/18 10:01:47;;;;;;;0.60;0.60;;;20.00;99.90;;;;;;5085246;28;20046;-90
2021/08/18 10:04:49;;;;;;;0.93;0.75;;;20.60;99.90;;;;;;5103177;27;20077;-90
2021/08/18 10:07:38;;;;;;;0.70;0.70;;;21.10;99.90;;;;;;5116496;28;20085;-91
2021/08/18 10:10:26;;;;;;;2.15;0.68;;;21.60;99.90;;;;;;5099251;28;20061;-92
2021/08/18 10:13:14;;;;;;;0.80;0.68;;;23.00;99.90;;;;;;5109892;28;20123;-89
2021/08/18 10:16:02;;;;;;;0.82;0.70;;;23.80;92.30;;;;;;5105737;28;20040;-94
2021/08/18 10:18:55;;;;;;;0.70;0.70;;;23.10;92.70;;;;;;5116471;28;20050;-93
2021/08/18 10:21:43;;;;;;;0.40;0.40;;;22.60;93.40;;;;;;5111603;28;20122;-93
2021/08/18 10:24:54;;;;;;;1.48;0.63;;;22.00;92.60;;;;;;5096742;28;20051;-93
2021/08/18 10:32:19;;;;;;;1.35;0.70;;;21.60;96.90;;;;;;5037555;28;20348;-92
2021/08/18 10:35:44;;;;;;;;;;;;;;;;;;;;;
2021/08/18 10:39:11;;;;;;;0.70;0.65;;;21.40;96.00;;;;;;5033572;28;20472;-91
2021/08/18 10:42:41;;;;;;;0.70;0.70;;;21.10;96.50;;;;;;5034017;28;20562;-94
2021/08/18 10:45:37;;;;;;;2.13;0.60;;;20.00;98.80;;;;;;5073914;27;20046;-94
2021/08/18 10:48:57;;;;;;;0.90;0.65;;;19.50;99.90;;;;;;5119057;28;20062;-94
2021/08/18 10:51:52;;;;;;;1.13;0.60;;;19.20;99.90;;;;;;5113656;28;20456;-94
2021/08/18 10:55:42;;;;;;;1.95;0.70;;;19.20;99.90;;;;;;5103486;28;20035;-89
2021/08/18 10:58:36;;;;;;;0.65;0.65;;;19.30;99.90;;;;;;5106478;28;20039;-93
2021/08/18 11:01:48;;;;;;;0.52;0.52;;;19.70;99.90;;;;;;5094336;27;20050;-94
2021/08/18 11:05:25;;;;;;;0.43;0.43;;;20.50;99.90;;;;;;5101483;28;20051;-94
2021/08/18 11:08:26;;;;;;;0.60;0.60;;;20.70;98.30;;;;;;5100976;28;20110;-91
2021/08/18 11:11:40;;;;;;;1.02;0.57;;;21.20;97.00;;;;;;5088965;28;20126;-94
2021/08/18 11:14:38;;;;;;;0.73;0.50;;;20.50;97.90;;;;;;5104180;27;20128;-94
2021/08/18 11:17:26;;;;;;;2.30;0.60;;;20.30;99.00;;;;;;5104083;27;20039;-93
2021/08/18 11:20:27;;;;;;;1.00;0.60;;;20.10;99.00;;;;;;5108041;28;20105;-92
2021/08/18 11:23:25;;;;;;;0.98;0.80;;;20.00;99.90;;;;;;5105638;27;20466;-92
2021/08/18 11:26:30;;;;;;;0.60;0.60;;;19.90;99.90;;;;;;5115765;28;20043;-94
2021/08/18 11:29:20;;;;;;;0.47;0.47;;;20.20;99.50;;;;;;5110263;28;20039;-93
2021/08/18 11:32:10;;;;;;;1.88;0.55;;;20.10;99.60;;;;;;5105402;28;20047;-92
2021/08/18 11:34:58;;;;;;;0.65;0.60;;;20.00;99.90;;;;;;5111293;28;20127;-91
2021/08/18 11:38:10;;;;;;;0.82;0.50;;;20.10;99.00;;;;;;5107125;28;20040;-90
2021/08/18 11:40:57;;;;;;;4.05;0.90;;;20.30;99.30;;;;;;5105063;28;20114;-91
2021/08/18 11:44:03;;;;;;;2.27;0.80;;;21.00;98.00;;;;;;5112799;28;20047;-92
2021/08/18 11:46:50;;;;;;;0.60;0.55;;;22.00;95.80;;;;;;5109308;28;20054;-91
2021/08/18 11:49:38;;;;;;;0.50;0.50;;;22.50;92.90;;;;;;5122507;27;20051;-89
2021/08/18 11:52:27;;;;;;;0.52;0.35;;;23.00;93.30;;;;;;5107578;28;20067;-88
2021/08/18 11:55:34;;;;;;;0.70;0.50;;;23.20;90.60;;;;;;5112791;28;20044;-91
2021/08/18 11:58:46;;;;;;;;;;;;;;;;;;;;;
2021/08/18 12:01:58;;;;;;;0.77;0.60;;;23.70;86.30;;;;;;5123748;28;20051;-91
2021/08/18 12:06:21;;;;;;;3.67;0.55;;;23.60;82.10;;;;;;5108894;28;20044;-92
2021/08/18 12:09:43;;;;;;;0.50;0.40;;;23.40;84.20;;;;;;5042577;28;20060;-91
2021/08/18 12:13:24;;;;;;;1.45;0.50;;;24.40;82.60;;;;;;4931187;29;20107;-92
2021/08/18 12:30:01;;;;;;;;;;;;;;;;;;;;;
2021/08/18 12:38:24;;;;;;;1.55;0.75;;;22.80;87.80;;;;;;4997736;28;20153;-92
2021/08/18 13:02:04;;;;;;;3.83;1.38;;;24.90;68.80;;;;;;4850746;29;20078;-92
2021/08/18 13:09:30;;;;;;;1.85;1.40;;;24.20;73.60;;;;;;4892920;29;20140;-93
2021/08/18 13:17:04;;;;;;;1.90;1.65;;;21.50;84.90;;;;;;4958302;29;20109;-92
2021/08/18 13:19:55;;;;;;;2.78;1.00;;;22.50;85.80;;;;;;4957163;28;20051;-90
2021/08/18 13:22:42;;;;;;;1.13;1.02;;;23.50;78.50;;;;;;4958239;28;20055;-91
2021/08/18 13:25:47;;;;;;;2.05;1.13;;;23.40;76.50;;;;;;4948682;28;20047;-92
2021/08/18 13:32:09;;;;;;;1.77;1.45;;;22.70;81.90;;;;;;5033638;28;20123;-92
2021/08/18 13:35:39;;;;;;;;;;;;;;;;;;;;;
2021/08/18 13:38:42;;;;;;;1.38;1.15;;;22.60;81.00;;;;;;5184347;22;20053;-92
2021/08/18 13:41:39;;;;;;;1.85;1.35;;;22.30;83.90;;;;;;5032428;28;20060;-95
2021/08/18 13:44:30;;;;;;;1.80;1.42;;;21.50;85.70;;;;;;5031666;28;20095;-93
2021/08/18 13:51:37;;;;;;;4.47;1.75;;;21.10;90.00;;;;;;4994877;28;20058;-93
2021/08/18 13:54:51;;;;;;;2.05;1.45;;;21.00;90.00;;;;;;4945053;28;20111;-93
2021/08/18 13:58:08;;;;;;;3.30;1.60;;;21.30;88.70;;;;;;4961635;28;20846;-92
2021/08/18 14:01:00;;;;;;;1.63;1.42;;;21.80;88.10;;;;;;4900648;28;20117;-90
2021/08/18 14:04:03;;;;;;;;;;;;;;;;;;;;;
2021/08/18 14:07:38;;;;;;;;;;;;;;;;;;;;;
2021/08/18 14:10:42;;;;;;;1.98;1.50;;;22.20;85.40;;;;;;4960112;28;20059;-92
2021/08/18 14:13:59;;;;;;;2.22;1.40;;;22.00;85.30;;;;;;5021571;28;20061;-90
2021/08/18 14:16:54;;;;;;;1.63;1.25;;;21.90;87.00;;;;;;5022730;28;20088;-91
2021/08/18 14:19:50;;;;;;;1.73;1.30;;;21.70;86.30;;;;;;5035266;28;20049;-93
2021/08/18 14:23:14;;;;;;;2.38;1.40;;;21.50;86.90;;;;;;5021144;28;20056;-95
2021/08/18 14:30:35;;;;;;;;;;;;;;;;;;;;;
2021/08/18 14:33:36;;;;;;;1.60;1.25;;;21.00;88.50;;;;;;4928080;29;20048;-90
2021/08/18 14:37:00;;;;;;;;;;;;;;;;;;;;;
2021/08/18 14:40:44;;;;;;;3.28;1.25;;;21.00;92.70;;;;;;4915662;29;20206;-93
2021/08/18 14:44:40;;;;;;;3.33;1.25;;;21.30;88.70;;;;;;4838570;29;20047;-93
2021/08/18 14:48:09;;;;;;;1.60;1.00;;;22.30;86.60;;;;;;4842293;29;20111;-93
2021/08/18 14:51:13;;;;;;;3.15;1.05;;;25.10;74.10;;;;;;4840102;29;20106;-90
2021/08/18 15:07:29;;;;;;;1.35;1.25;;;24.70;74.90;;;;;;4815622;29;20101;-89
2021/08/18 15:10:39;;;;;;;3.15;1.30;;;24.10;74.90;;;;;;4884529;29;20056;-91
2021/08/18 15:13:35;;;;;;;3.08;1.02;;;22.00;80.40;;;;;;4940608;28;20051;-91
2021/08/18 15:16:27;;;;;;;2.10;1.35;;;21.80;82.90;;;;;;4997112;28;20120;-91
2021/08/18 15:19:23;;;;;;;3.90;1.10;;;21.90;80.60;;;;;;4995508;28;20052;-94
2021/08/18 15:22:43;;;;;;;4.82;1.60;;;21.60;82.30;;;;;;4992745;28;20034;-91
2021/08/18 15:25:41;;;;;;;2.38;1.33;;;21.60;84.30;;;;;;4988114;28;20050;-93
2021/08/18 15:28:29;;;;;;;2.03;1.50;;;21.70;85.10;;;;;;4992424;28;20050;-91
2021/08/18 15:31:16;;;;;;;3.55;1.30;;;21.60;84.80;;;;;;4993388;28;20360;-90
2021/08/18 15:34:07;;;;;;;1.60;1.10;;;21.60;87.20;;;;;;4992264;28;20046;-93
2021/08/18 15:36:55;;;;;;;1.30;1.20;;;21.60;88.60;;;;;;4999087;28;20057;-91
2021/08/18 15:39:46;;;;;;;2.03;1.30;;;21.60;88.30;;;;;;4991814;28;20053;-91
2021/08/18 15:42:40;;;;;;;3.78;1.58;;;21.60;88.50;;;;;;4976476;28;20058;-92
2021/08/18 15:45:29;;;;;;;1.63;1.20;;;21.70;89.10;;;;;;4994119;28;20042;-92
2021/08/18 15:48:16;;;;;;;1.60;1.00;;;21.60;89.50;;;;;;4997871;28;20081;-91
2021/08/18 15:51:04;;;;;;;1.52;1.42;;;21.40;89.70;;;;;;5002780;28;20046;-93
2021/08/18 15:53:51;;;;;;;1.65;1.23;;;21.30;88.80;;;;;;4986522;28;20058;-92
2021/08/18 15:56:40;;;;;;;1.52;1.23;;;21.20;90.70;;;;;;4962866;28;20058;-90
2021/08/18 15:59:28;;;;;;;4.38;1.40;;;20.90;89.40;;;;;;4993817;28;20042;-92
2021/08/18 16:02:15;;;;;;;1.90;1.30;;;20.70;90.80;;;;;;4995134;28;20203;-92
2021/08/18 16:05:05;;;;;;;1.40;1.30;;;20.60;91.50;;;;;;4985612;28;20479;-91
2021/08/18 16:07:52;;;;;;;1.20;1.02;;;20.50;92.10;;;;;;4978745;28;20062;-92
2021/08/18 16:10:40;;;;;;;2.83;1.38;;;20.30;92.20;;;;;;4979222;28;20066;-92
2021/08/18 16:13:27;;;;;;;3.65;1.58;;;20.20;93.10;;;;;;4995034;28;20041;-92
2021/08/18 16:16:21;;;;;;;1.83;1.23;;;20.10;94.10;;;;;;4993577;28;20451;-92
2021/08/18 16:19:15;;;;;;;1.63;1.52;;;19.90;93.90;;;;;;4990695;28;20049;-91
2021/08/18 16:22:02;;;;;;;2.58;1.40;;;19.90;94.90;;;;;;4987305;28;20046;-91
2021/08/18 16:24:50;;;;;;;3.45;1.70;;;19.90;94.50;;;;;;4990129;28;20152;-90
2021/08/18 16:27:39;;;;;;;2.47;1.63;;;19.80;94.60;;;;;;4991932;28;20053;-91
2021/08/18 16:30:26;;;;;;;2.15;1.80;;;19.60;95.40;;;;;;4978832;28;20073;-91
2021/08/18 16:33:14;;;;;;;3.25;1.90;;;19.70;96.00;;;;;;4997073;28;20081;-91
2021/08/18 16:36:05;;;;;;;3.50;1.80;;;19.70;95.70;;;;;;4993663;28;20045;-91
2021/08/18 16:38:53;;;;;;;2.67;1.38;;;19.80;96.30;;;;;;4984513;28;20085;-91
2021/08/18 16:41:40;;;;;;;2.03;1.55;;;19.90;96.30;;;;;;5013778;28;20057;-92
2021/08/18 16:44:30;;;;;;;5.43;1.70;;;19.80;95.90;;;;;;5022096;28;20107;-89
2021/08/18 16:47:17;;;;;;;4.22;2.00;;;19.80;96.20;;;;;;5020435;28;20384;-91
2021/08/18 16:50:06;;;;;;;2.22;1.50;;;19.70;97.10;;;;;;5018121;28;20060;-90
2021/08/18 16:52:56;;;;;;;2.90;1.63;;;19.50;96.90;;;;;;5036413;28;20042;-91
2021/08/18 16:55:44;;;;;;;1.95;1.48;;;19.50;97.30;;;;;;5016111;28;20077;-91
2021/08/18 16:58:32;;;;;;;4.50;1.55;;;19.40;97.90;;;;;;5028105;28;20115;-91
2021/08/18 17:01:20;;;;;;;1.88;1.60;;;19.30;98.30;;;;;;5032571;28;20050;-91
2021/08/18 17:04:07;;;;;;;2.42;1.60;;;19.30;99.10;;;;;;5036339;28;20066;-90
2021/08/18 17:06:54;;;;;;;2.33;1.85;;;19.10;98.80;;;;;;5022824;28;20052;-89
2021/08/18 17:09:42;;;;;;;2.92;1.90;;;18.90;99.70;;;;;;5015271;28;20063;-88
2021/08/18 17:12:32;;;;;;;3.15;2.08;;;18.80;99.90;;;;;;5014222;28;20383;-91
2021/08/18 17:15:22;;;;;;;2.40;2.00;;;18.80;99.90;;;;;;5034780;28;20135;-89
2021/08/18 17:18:13;;;;;;;2.65;1.70;;;18.70;99.90;;;;;;5020120;28;20451;-91
2021/08/18 17:21:05;;;;;;;2.00;1.77;;;18.60;99.90;;;;;;5026674;28;20052;-90
2021/08/18 17:23:55;;;;;;;2.92;1.80;;;18.60;99.90;;;;;;5031088;28;20037;-87
2021/08/18 17:26:43;;;;;;;2.40;1.83;;;18.50;99.90;;;;;;5034250;28;20121;-91
2021/08/18 17:29:31;;;;;;;2.13;1.50;;;18.50;99.90;;;;;;5020019;28;20045;-92
2021/08/18 17:32:18;;;;;;;6.78;2.85;;;18.50;99.90;;;;;;5021169;28;20057;-91
2021/08/18 17:35:07;;;;;;;4.57;1.70;;;18.60;99.90;;;;;;5028208;28;20057;-91
2021/08/18 17:37:55;;;;;;;1.58;1.40;;;18.50;99.90;;;;;;5020363;28;20576;-93
2021/08/18 17:40:44;;;;;;;2.28;1.88;;;18.50;99.90;;;;;;5018974;28;20180;-91
2021/08/18 17:43:33;;;;;;;2.28;2.00;;;18.50;99.90;;;;;;5042775;28;20088;-92
2021/08/18 17:46:44;;;;;;;2.35;2.15;;;18.40;99.90;;;;;;5033894;28;20150;-91
2021/08/18 17:49:34;;;;;;;4.18;2.28;;;18.40;99.90;;;;;;4995659;28;20130;-92
2021/08/18 17:52:21;;;;;;;4.03;2.10;;;18.40;99.90;;;;;;5033320;28;20100;-91
2021/08/18 17:55:09;;;;;;;5.60;2.20;;;18.30;99.90;;;;;;5035358;28;20052;-91
2021/08/18 17:58:13;;;;;;;2.38;2.05;;;18.20;99.90;;;;;;5019400;28;20088;-92
2021/08/18 18:01:04;;;;;;;1.92;1.67;;;18.20;99.90;;;;;;5013587;28;20537;-92
2021/08/18 18:04:01;;;;;;;2.28;2.08;;;18.20;99.90;;;;;;5034721;28;20362;-92
2021/08/18 18:06:51;;;;;;;2.20;1.40;;;18.00;99.90;;;;;;5019361;28;20092;-92
2021/08/18 18:09:38;;;;;;;1.73;1.63;;;18.00;99.90;;;;;;5034542;28;20056;-91
2021/08/18 18:12:25;;;;;;;5.25;1.95;;;18.00;99.90;;;;;;5017367;28;20049;-91